Time;durP1;ratioP1;P1;durP2;ratioP2;P2;SDS_P1;SDS_P2;PMS_P1;PMS_P2;Temp;Humidity;BMP_temperature;BMP_pressure;BME280_temperature;BME280_humidity;BME280_pressure;Samples;Min_cycle;Max_cycle;Signal;HPM_P1;HPM_P2
2022/09/20 00:01:55;;;;;;;7.27;2.33;;;;;;;;;;5051771;28;20192;-43
2022/09/20 00:04:21;;;;;;;5.17;2.23;;;;;;;;;;5050994;28;20203;-44
2022/09/20 00:06:49;;;;;;;10.13;3.00;;;;;;;;;;5050842;28;20193;-44
2022/09/20 00:09:15;;;;;;;8.10;2.80;;;;;;;;;;5052513;28;20279;-44
2022/09/20 00:11:41;;;;;;;8.20;2.83;;;;;;;;;;5052458;28;20320;-44
2022/09/20 00:14:07;;;;;;;7.00;2.70;;;;;;;;;;5052325;28;20207;-44
2022/09/20 00:16:34;;;;;;;5.80;2.40;;;;;;;;;;5052108;28;20192;-44
2022/09/20 00:19:02;;;;;;;8.77;2.97;;;;;;;;;;5052328;28;20200;-44
2022/09/20 00:21:29;;;;;;;6.23;2.40;;;;;;;;;;5052495;28;20716;-44
2022/09/20 00:23:57;;;;;;;7.27;2.53;;;;;;;;;;5052427;28;20192;-44
2022/09/20 00:26:23;;;;;;;6.87;2.63;;;;;;;;;;5052144;28;20259;-44
2022/09/20 00:28:50;;;;;;;9.37;2.47;;;;;;;;;;5052083;28;20653;-44
2022/09/20 00:31:16;;;;;;;7.83;2.67;;;;;;;;;;5051426;28;20294;-44
2022/09/20 00:36:27;;;;;;;5.83;2.07;;;;;;;;;;5052193;28;20194;-44
2022/09/20 00:38:54;;;;;;;6.83;2.53;;;;;;;;;;5051677;28;20227;-44
2022/09/20 00:41:21;;;;;;;11.33;2.70;;;;;;;;;;5051899;28;20254;-44
2022/09/20 00:43:47;;;;;;;3.63;1.80;;;;;;;;;;5050388;28;20211;-44
2022/09/20 00:46:19;;;;;;;4.60;2.30;;;;;;;;;;5050913;28;20204;-45
2022/09/20 00:48:45;;;;;;;7.00;2.60;;;;;;;;;;5051382;28;20208;-44
2022/09/20 00:51:13;;;;;;;6.40;3.00;;;;;;;;;;5051472;28;20236;-45
2022/09/20 00:53:40;;;;;;;6.40;2.20;;;;;;;;;;5051703;28;20262;-45
2022/09/20 00:56:08;;;;;;;9.27;2.40;;;;;;;;;;5051569;28;20279;-44
2022/09/20 00:58:37;;;;;;;6.33;2.63;;;;;;;;;;5049820;28;20200;-44
2022/09/20 01:01:04;;;;;;;7.17;2.23;;;;;;;;;;5051181;28;20271;-44
2022/09/20 01:03:31;;;;;;;5.20;2.40;;;;;;;;;;5051497;28;20204;-44
2022/09/20 01:05:59;;;;;;;7.13;2.30;;;;;;;;;;5051195;28;20726;-45
2022/09/20 01:08:25;;;;;;;5.77;2.30;;;;;;;;;;5050979;28;20232;-45
2022/09/20 01:10:51;;;;;;;5.40;2.43;;;;;;;;;;5050881;28;20240;-45
2022/09/20 01:13:17;;;;;;;8.50;2.50;;;;;;;;;;5051479;28;20208;-44
2022/09/20 01:15:46;;;;;;;9.57;2.70;;;;;;;;;;5051294;28;20241;-44
2022/09/20 01:18:13;;;;;;;7.20;2.60;;;;;;;;;;5051203;28;20628;-44
2022/09/20 01:20:40;;;;;;;7.37;2.37;;;;;;;;;;5051315;28;20486;-44
2022/09/20 01:23:12;;;;;;;8.80;2.77;;;;;;;;;;5051274;28;20196;-45
2022/09/20 01:25:54;;;;;;;5.30;2.63;;;;;;;;;;5051312;28;20215;-45
2022/09/20 01:28:21;;;;;;;6.80;2.83;;;;;;;;;;5050718;28;20250;-44
2022/09/20 01:30:50;;;;;;;7.30;2.70;;;;;;;;;;5050433;28;20236;-44
2022/09/20 01:33:23;;;;;;;5.43;2.40;;;;;;;;;;5051025;28;20207;-45
2022/09/20 01:35:50;;;;;;;9.20;2.60;;;;;;;;;;5051250;28;20279;-44
2022/09/20 01:38:26;;;;;;;7.57;2.63;;;;;;;;;;5051363;28;20547;-45
2022/09/20 01:40:57;;;;;;;8.70;2.57;;;;;;;;;;5050880;28;20582;-45
2022/09/20 01:43:30;;;;;;;5.03;2.40;;;;;;;;;;5050879;28;20228;-45
2022/09/20 01:45:58;;;;;;;10.10;2.70;;;;;;;;;;5050776;28;20215;-45
2022/09/20 01:48:26;;;;;;;5.97;2.57;;;;;;;;;;5051074;28;20266;-45
2022/09/20 01:51:06;;;;;;;10.30;3.03;;;;;;;;;;5050538;28;20239;-44
2022/09/20 01:53:43;;;;;;;5.97;2.47;;;;;;;;;;5050434;28;20219;-45
2022/09/20 01:56:17;;;;;;;5.63;2.53;;;;;;;;;;5050651;28;20290;-45
2022/09/20 01:59:03;;;;;;;6.37;2.30;;;;;;;;;;5050853;28;20195;-44
2022/09/20 02:01:37;;;;;;;7.20;2.90;;;;;;;;;;5050709;28;20564;-45
2022/09/20 02:04:16;;;;;;;7.80;2.83;;;;;;;;;;5050595;28;20185;-45
2022/09/20 02:06:49;;;;;;;7.13;3.10;;;;;;;;;;5050725;28;20200;-45
2022/09/20 02:09:35;;;;;;;8.13;2.93;;;;;;;;;;5050732;28;20205;-44
2022/09/20 02:12:15;;;;;;;5.10;2.73;;;;;;;;;;5047580;28;20232;-44
2022/09/20 02:14:49;;;;;;;8.00;3.47;;;;;;;;;;5054887;28;20277;-44
2022/09/20 02:17:18;;;;;;;8.40;3.47;;;;;;;;;;5054487;28;20203;-45
2022/09/20 02:19:57;;;;;;;4.93;2.57;;;;;;;;;;5054575;28;20196;-44
2022/09/20 02:22:28;;;;;;;5.90;2.73;;;;;;;;;;5053804;28;20574;-45
2022/09/20 02:24:59;;;;;;;9.60;3.20;;;;;;;;;;5052814;28;20580;-44
2022/09/20 02:27:30;;;;;;;5.80;2.93;;;;;;;;;;5053513;28;20800;-44
2022/09/20 02:30:03;;;;;;;7.97;3.43;;;;;;;;;;5054135;28;20294;-45
2022/09/20 02:32:38;;;;;;;8.73;3.07;;;;;;;;;;5054468;28;20219;-45
2022/09/20 02:35:14;;;;;;;10.03;2.90;;;;;;;;;;5054267;28;20196;-45
2022/09/20 02:37:47;;;;;;;3.73;3.07;;;;;;;;;;5054608;28;20211;-45
2022/09/20 02:40:21;;;;;;;7.17;2.80;;;;;;;;;;5054179;28;20398;-45
2022/09/20 02:42:50;;;;;;;7.07;3.70;;;;;;;;;;5054087;28;20200;-44
2022/09/20 02:45:21;;;;;;;7.53;3.00;;;;;;;;;;5054114;28;20655;-44
2022/09/20 02:47:47;;;;;;;6.87;3.00;;;;;;;;;;5053972;28;20234;-45
2022/09/20 02:50:18;;;;;;;7.50;3.13;;;;;;;;;;5054158;28;20223;-45
2022/09/20 02:52:49;;;;;;;4.53;2.67;;;;;;;;;;5054095;28;20681;-45
2022/09/20 02:55:17;;;;;;;10.10;3.13;;;;;;;;;;5053723;28;20279;-45
2022/09/20 02:57:47;;;;;;;5.20;2.63;;;;;;;;;;5053610;28;20662;-45
2022/09/20 03:00:17;;;;;;;4.60;2.80;;;;;;;;;;5053779;28;20200;-45
2022/09/20 03:02:50;;;;;;;5.50;2.70;;;;;;;;;;5053199;28;20200;-45
2022/09/20 03:05:18;;;;;;;9.50;3.30;;;;;;;;;;5053069;28;20196;-45
2022/09/20 03:07:56;;;;;;;8.40;3.37;;;;;;;;;;5053693;28;20220;-44
2022/09/20 03:10:25;;;;;;;11.30;3.67;;;;;;;;;;5053702;28;20678;-45
2022/09/20 03:13:04;;;;;;;8.53;3.60;;;;;;;;;;5053617;28;20211;-44
2022/09/20 03:15:33;;;;;;;9.10;3.70;;;;;;;;;;5053476;28;20227;-45
2022/09/20 03:18:07;;;;;;;5.87;3.23;;;;;;;;;;5053129;28;20258;-44
2022/09/20 03:20:38;;;;;;;7.00;3.27;;;;;;;;;;5053584;28;20212;-44
2022/09/20 03:23:10;;;;;;;6.60;2.90;;;;;;;;;;5052311;28;20716;-45
2022/09/20 03:25:46;;;;;;;7.10;3.03;;;;;;;;;;5053216;28;20203;-45
2022/09/20 03:28:21;;;;;;;6.40;2.60;;;;;;;;;;5053285;28;20601;-45
2022/09/20 03:30:53;;;;;;;6.23;3.10;;;;;;;;;;5052709;28;20714;-45
2022/09/20 03:33:26;;;;;;;8.30;3.20;;;;;;;;;;5053185;28;20270;-45
2022/09/20 03:35:58;;;;;;;7.30;2.90;;;;;;;;;;5053137;28;20225;-45
2022/09/20 03:38:32;;;;;;;6.43;2.60;;;;;;;;;;5053222;28;20250;-45
2022/09/20 03:41:06;;;;;;;10.00;3.10;;;;;;;;;;5052972;28;20254;-45
2022/09/20 03:43:39;;;;;;;6.97;2.67;;;;;;;;;;5053248;28;20200;-44
2022/09/20 03:46:14;;;;;;;4.80;2.50;;;;;;;;;;5052987;28;20239;-44
2022/09/20 03:48:50;;;;;;;5.73;2.77;;;;;;;;;;5052947;28;20191;-44
2022/09/20 03:51:22;;;;;;;7.17;3.23;;;;;;;;;;5052836;28;20268;-45
2022/09/20 03:54:16;;;;;;;3.93;2.60;;;;;;;;;;5052446;28;20200;-44
2022/09/20 03:56:57;;;;;;;6.40;2.70;;;;;;;;;;5052119;28;20200;-45
2022/09/20 03:59:35;;;;;;;8.87;3.10;;;;;;;;;;5052039;28;20267;-45
2022/09/20 04:02:10;;;;;;;6.40;2.50;;;;;;;;;;5052191;28;20564;-45
2022/09/20 04:04:41;;;;;;;8.87;2.90;;;;;;;;;;5052296;28;20207;-45
2022/09/20 04:07:15;;;;;;;10.13;3.40;;;;;;;;;;5052505;28;20231;-45
2022/09/20 04:09:49;;;;;;;10.50;3.83;;;;;;;;;;5052664;28;20205;-44
2022/09/20 04:12:19;;;;;;;7.47;3.07;;;;;;;;;;5052302;28;20228;-44
2022/09/20 04:14:49;;;;;;;9.83;2.80;;;;;;;;;;5051822;28;20203;-45
2022/09/20 04:17:23;;;;;;;8.23;2.93;;;;;;;;;;5051067;28;20200;-44
2022/09/20 04:19:56;;;;;;;9.03;2.93;;;;;;;;;;5051524;28;20195;-45
2022/09/20 04:22:25;;;;;;;7.97;3.23;;;;;;;;;;5052216;28;20271;-45
2022/09/20 04:24:53;;;;;;;6.53;2.70;;;;;;;;;;5052216;28;20222;-45
2022/09/20 04:27:21;;;;;;;10.63;3.00;;;;;;;;;;5052198;28;20287;-44
2022/09/20 04:29:52;;;;;;;8.80;2.93;;;;;;;;;;5051895;28;20200;-45
2022/09/20 04:32:20;;;;;;;5.83;2.50;;;;;;;;;;5051931;28;20709;-45
2022/09/20 04:37:38;;;;;;;12.40;3.23;;;;;;;;;;5051886;28;20195;-45
2022/09/20 04:40:13;;;;;;;9.30;2.83;;;;;;;;;;5051837;28;20201;-45
2022/09/20 04:42:57;;;;;;;7.00;3.27;;;;;;;;;;5051961;28;20210;-45
2022/09/20 04:45:42;;;;;;;7.53;2.70;;;;;;;;;;5051585;28;20266;-45
2022/09/20 04:48:24;;;;;;;7.83;2.90;;;;;;;;;;5051766;28;20196;-45
2022/09/20 04:51:07;;;;;;;4.97;2.70;;;;;;;;;;5048796;28;20231;-44
2022/09/20 04:53:54;;;;;;;5.90;2.67;;;;;;;;;;5051701;28;20251;-45
2022/09/20 04:56:27;;;;;;;6.47;2.53;;;;;;;;;;5051662;28;20188;-45
2022/09/20 04:59:06;;;;;;;7.93;3.67;;;;;;;;;;5051699;28;20208;-44
2022/09/20 05:01:47;;;;;;;9.10;3.17;;;;;;;;;;5051577;28;20224;-44
2022/09/20 05:04:27;;;;;;;9.87;3.40;;;;;;;;;;5051316;28;20196;-45
2022/09/20 05:07:04;;;;;;;7.87;3.20;;;;;;;;;;5051360;28;20270;-45
2022/09/20 05:09:49;;;;;;;4.60;2.63;;;;;;;;;;5051456;28;20349;-45
2022/09/20 05:12:33;;;;;;;8.63;3.53;;;;;;;;;;5051122;28;20270;-45
2022/09/20 05:15:07;;;;;;;6.10;2.77;;;;;;;;;;5051196;28;20279;-45
2022/09/20 05:17:37;;;;;;;7.93;3.17;;;;;;;;;;5049454;28;20211;-45
2022/09/20 05:20:17;;;;;;;6.27;2.90;;;;;;;;;;5051185;28;20650;-45
2022/09/20 05:22:55;;;;;;;7.67;2.47;;;;;;;;;;5051039;28;20206;-45
2022/09/20 05:25:50;;;;;;;7.63;2.67;;;;;;;;;;5051113;28;20662;-47
2022/09/20 05:28:22;;;;;;;6.53;2.53;;;;;;;;;;5005281;28;20201;-46
2022/09/20 05:30:49;;;;;;;5.87;2.73;;;;;;;;;;5051037;28;20620;-47
2022/09/20 05:33:20;;;;;;;9.83;3.13;;;;;;;;;;5050952;28;20246;-46
2022/09/20 05:35:53;;;;;;;6.70;2.70;;;;;;;;;;5051062;28;20199;-46
2022/09/20 05:38:22;;;;;;;6.37;2.77;;;;;;;;;;5050940;28;20196;-46
2022/09/20 05:41:02;;;;;;;6.47;2.47;;;;;;;;;;5051185;28;20617;-46
2022/09/20 05:43:32;;;;;;;5.10;2.43;;;;;;;;;;5051008;28;20204;-46
2022/09/20 05:46:04;;;;;;;5.30;2.93;;;;;;;;;;5053123;28;20215;-46
2022/09/20 05:48:37;;;;;;;8.03;2.80;;;;;;;;;;5055308;28;20206;-44
2022/09/20 05:51:07;;;;;;;7.43;2.47;;;;;;;;;;5054991;28;20345;-45
2022/09/20 05:53:45;;;;;;;5.37;3.03;;;;;;;;;;5055045;28;20204;-44
2022/09/20 05:56:16;;;;;;;7.73;2.90;;;;;;;;;;5054772;28;20203;-45
2022/09/20 05:58:51;;;;;;;4.93;2.47;;;;;;;;;;5054789;28;20196;-44
2022/09/20 06:01:20;;;;;;;5.43;2.13;;;;;;;;;;5054504;28;20747;-46
2022/09/20 06:03:53;;;;;;;4.57;2.30;;;;;;;;;;5054682;28;20200;-46
2022/09/20 06:06:22;;;;;;;6.57;2.53;;;;;;;;;;5054733;28;20207;-46
2022/09/20 06:08:58;;;;;;;9.10;3.33;;;;;;;;;;5054596;28;20274;-46
2022/09/20 06:11:38;;;;;;;8.73;2.87;;;;;;;;;;5054918;28;20259;-46
2022/09/20 06:14:14;;;;;;;6.53;2.10;;;;;;;;;;5054369;28;20231;-45
2022/09/20 06:16:42;;;;;;;6.57;2.50;;;;;;;;;;5054651;28;20208;-45
2022/09/20 06:19:14;;;;;;;10.53;2.63;;;;;;;;;;5053301;28;20196;-45
2022/09/20 06:21:45;;;;;;;5.20;2.30;;;;;;;;;;5054525;28;20196;-45
2022/09/20 06:24:17;;;;;;;9.57;3.10;;;;;;;;;;5054447;28;20224;-45
2022/09/20 06:26:44;;;;;;;7.50;2.83;;;;;;;;;;5054216;28;20196;-45
2022/09/20 06:29:12;;;;;;;6.80;2.30;;;;;;;;;;5054591;28;20226;-46
2022/09/20 06:31:38;;;;;;;4.17;2.33;;;;;;;;;;5054270;28;20235;-46
2022/09/20 06:34:07;;;;;;;5.80;2.57;;;;;;;;;;5054083;28;20332;-46
2022/09/20 06:42:25;;;;;;;4.17;2.20;;;;;;;;;;5053570;28;20218;-46
2022/09/20 06:44:52;;;;;;;6.37;2.10;;;;;;;;;;5052004;28;20204;-46
2022/09/20 06:47:18;;;;;;;4.93;2.23;;;;;;;;;;5053305;28;20208;-46
2022/09/20 06:49:45;;;;;;;6.23;2.10;;;;;;;;;;5053559;28;20260;-46
2022/09/20 06:52:13;;;;;;;4.40;2.23;;;;;;;;;;5053693;28;20286;-46
2022/09/20 06:54:44;;;;;;;5.30;2.27;;;;;;;;;;5054053;28;20614;-46
2022/09/20 06:57:11;;;;;;;4.83;2.13;;;;;;;;;;5053183;28;20276;-46
2022/09/20 06:59:37;;;;;;;6.00;2.23;;;;;;;;;;5053384;28;20200;-46
2022/09/20 07:02:04;;;;;;;6.47;2.07;;;;;;;;;;5053462;28;20200;-46
2022/09/20 07:04:31;;;;;;;6.33;2.23;;;;;;;;;;5053431;28;20228;-46
2022/09/20 07:06:59;;;;;;;6.40;1.93;;;;;;;;;;5053410;28;20231;-46
2022/09/20 07:09:25;;;;;;;5.87;2.20;;;;;;;;;;5053622;28;20600;-46
2022/09/20 07:11:51;;;;;;;7.10;2.30;;;;;;;;;;5053369;28;20235;-45
2022/09/20 07:14:18;;;;;;;8.77;2.03;;;;;;;;;;5053117;28;20227;-45
2022/09/20 07:16:44;;;;;;;5.73;1.87;;;;;;;;;;5053083;28;20212;-45
2022/09/20 07:19:11;;;;;;;5.20;1.97;;;;;;;;;;5052480;28;20651;-45
2022/09/20 07:21:37;;;;;;;5.27;2.43;;;;;;;;;;5053211;28;20242;-46
2022/09/20 07:24:03;;;;;;;6.83;2.13;;;;;;;;;;5052287;28;20200;-46
2022/09/20 07:26:29;;;;;;;4.87;2.27;;;;;;;;;;5052998;28;20288;-46
2022/09/20 07:28:56;;;;;;;7.10;2.43;;;;;;;;;;5053202;28;20192;-46
2022/09/20 07:31:23;;;;;;;4.83;1.90;;;;;;;;;;5052388;28;20232;-46
2022/09/20 07:33:49;;;;;;;6.77;2.10;;;;;;;;;;5052978;28;20306;-46
2022/09/20 07:36:17;;;;;;;5.57;2.07;;;;;;;;;;5053024;28;20204;-46
2022/09/20 07:38:46;;;;;;;6.67;2.10;;;;;;;;;;5052405;28;20251;-46
2022/09/20 07:41:12;;;;;;;4.30;1.83;;;;;;;;;;5052824;28;20196;-46
2022/09/20 07:43:38;;;;;;;7.33;2.00;;;;;;;;;;5052834;28;20263;-45
2022/09/20 07:46:05;;;;;;;6.43;1.90;;;;;;;;;;5052563;28;20202;-46
2022/09/20 07:48:32;;;;;;;3.60;1.90;;;;;;;;;;5051188;28;20334;-46
2022/09/20 07:51:01;;;;;;;4.33;1.80;;;;;;;;;;5052506;28;20224;-46
2022/09/20 07:53:28;;;;;;;5.20;1.90;;;;;;;;;;5052531;28;20604;-46
2022/09/20 07:56:01;;;;;;;6.20;2.30;;;;;;;;;;5053017;28;20662;-46
2022/09/20 07:58:27;;;;;;;6.13;2.23;;;;;;;;;;5052569;28;20274;-46
2022/09/20 08:00:54;;;;;;;4.70;1.50;;;;;;;;;;5052598;28;20201;-46
2022/09/20 08:03:20;;;;;;;4.93;1.93;;;;;;;;;;5052527;28;20283;-46
2022/09/20 08:05:47;;;;;;;6.27;2.07;;;;;;;;;;5052462;28;20597;-46
2022/09/20 08:08:13;;;;;;;6.53;2.10;;;;;;;;;;5051718;28;20220;-46
2022/09/20 08:10:40;;;;;;;5.43;2.03;;;;;;;;;;5052428;28;20566;-45
2022/09/20 08:13:07;;;;;;;5.47;1.80;;;;;;;;;;5052217;28;20285;-45
2022/09/20 08:15:33;;;;;;;4.93;2.03;;;;;;;;;;5052558;28;20283;-46
2022/09/20 08:17:59;;;;;;;6.60;1.87;;;;;;;;;;5052289;28;20276;-46
2022/09/20 08:20:25;;;;;;;5.97;1.87;;;;;;;;;;5052244;28;20283;-43
2022/09/20 08:22:54;;;;;;;4.43;1.90;;;;;;;;;;5052015;28;20287;-46
2022/09/20 08:25:20;;;;;;;4.00;1.73;;;;;;;;;;5052070;28;20258;-47
2022/09/20 08:27:51;;;;;;;3.87;1.73;;;;;;;;;;5052472;28;20200;-46
2022/09/20 08:30:17;;;;;;;5.30;1.93;;;;;;;;;;5051887;28;20275;-43
2022/09/20 08:32:43;;;;;;;7.57;2.03;;;;;;;;;;5052079;28;20232;-46
2022/09/20 08:35:10;;;;;;;2.40;1.60;;;;;;;;;;5051967;28;20255;-46
2022/09/20 08:37:36;;;;;;;2.67;1.50;;;;;;;;;;5051757;28;20623;-46
2022/09/20 08:40:02;;;;;;;3.57;1.47;;;;;;;;;;5051691;28;20197;-46
2022/09/20 08:42:30;;;;;;;5.37;2.23;;;;;;;;;;5051770;28;20235;-46
2022/09/20 08:44:59;;;;;;;3.97;1.87;;;;;;;;;;5051752;28;20605;-46
2022/09/20 08:47:26;;;;;;;4.40;1.57;;;;;;;;;;5051532;28;20208;-46
2022/09/20 08:49:53;;;;;;;4.97;1.60;;;;;;;;;;5051687;28;20223;-46
2022/09/20 08:52:22;;;;;;;4.10;1.67;;;;;;;;;;5049700;28;20250;-46
2022/09/20 08:54:49;;;;;;;2.23;1.43;;;;;;;;;;5050651;28;20283;-47
2022/09/20 08:57:17;;;;;;;5.97;1.60;;;;;;;;;;5051432;28;20200;-46
2022/09/20 08:59:44;;;;;;;5.43;1.77;;;;;;;;;;5051660;28;20246;-46
2022/09/20 09:02:14;;;;;;;4.53;1.60;;;;;;;;;;5051312;28;20523;-46
2022/09/20 09:04:43;;;;;;;4.60;1.60;;;;;;;;;;5052048;28;20200;-46
2022/09/20 09:07:10;;;;;;;4.20;1.77;;;;;;;;;;5050042;28;20619;-46
2022/09/20 09:09:40;;;;;;;3.77;1.50;;;;;;;;;;5051439;28;20287;-46
2022/09/20 09:12:06;;;;;;;5.97;1.67;;;;;;;;;;5051272;28;20258;-46
2022/09/20 09:14:51;;;;;;;4.50;1.50;;;;;;;;;;5051470;28;20223;-46
2022/09/20 09:17:19;;;;;;;5.60;1.50;;;;;;;;;;5051028;28;20203;-46
2022/09/20 09:19:47;;;;;;;3.90;1.70;;;;;;;;;;5050914;28;20629;-46
2022/09/20 09:22:17;;;;;;;5.30;1.43;;;;;;;;;;5049958;28;20216;-46
2022/09/20 09:24:43;;;;;;;3.97;1.60;;;;;;;;;;5051586;28;20338;-46
2022/09/20 09:27:14;;;;;;;4.87;1.50;;;;;;;;;;5051664;28;20261;-46
2022/09/20 09:29:47;;;;;;;5.63;1.80;;;;;;;;;;5051422;28;20609;-46
2022/09/20 09:32:20;;;;;;;4.17;1.63;;;;;;;;;;5051461;28;20293;-45
2022/09/20 09:34:46;;;;;;;4.90;1.87;;;;;;;;;;5051547;28;20203;-45
2022/09/20 09:37:22;;;;;;;5.63;1.80;;;;;;;;;;5051324;28;20224;-45
2022/09/20 09:40:04;;;;;;;2.80;1.23;;;;;;;;;;5050496;28;20696;-45
2022/09/20 09:42:31;;;;;;;4.87;1.57;;;;;;;;;;5051291;28;20200;-45
2022/09/20 09:45:09;;;;;;;3.93;1.60;;;;;;;;;;5049952;28;20288;-45
2022/09/20 09:47:37;;;;;;;5.93;1.97;;;;;;;;;;5050559;28;20198;-46
2022/09/20 09:50:03;;;;;;;5.03;1.70;;;;;;;;;;5050602;28;20763;-45
2022/09/20 09:52:32;;;;;;;7.20;2.17;;;;;;;;;;5050763;28;20234;-46
2022/09/20 09:55:00;;;;;;;4.50;1.73;;;;;;;;;;5051151;28;20672;-45
2022/09/20 09:57:33;;;;;;;4.53;1.50;;;;;;;;;;5050888;28;20210;-45
2022/09/20 10:00:07;;;;;;;4.33;1.63;;;;;;;;;;5050847;28;20566;-45
2022/09/20 10:02:43;;;;;;;4.40;1.60;;;;;;;;;;5049928;28;20727;-45
2022/09/20 10:05:14;;;;;;;4.90;1.77;;;;;;;;;;5049767;28;20230;-45
2022/09/20 10:07:44;;;;;;;3.70;1.30;;;;;;;;;;5049999;28;20582;-46
2022/09/20 10:10:15;;;;;;;5.73;2.00;;;;;;;;;;5049572;28;20203;-45
2022/09/20 10:12:50;;;;;;;4.03;1.70;;;;;;;;;;5049521;28;20231;-45
2022/09/20 10:15:22;;;;;;;5.43;1.47;;;;;;;;;;5050013;28;20207;-45
2022/09/20 10:17:54;;;;;;;2.67;1.50;;;;;;;;;;5050724;28;20283;-45
2022/09/20 10:20:27;;;;;;;5.10;1.40;;;;;;;;;;5050800;28;20207;-46
2022/09/20 10:22:59;;;;;;;5.37;1.50;;;;;;;;;;5050913;28;20650;-46
2022/09/20 10:25:32;;;;;;;2.47;1.40;;;;;;;;;;5050225;28;20287;-46
2022/09/20 10:28:06;;;;;;;5.10;1.53;;;;;;;;;;5051048;28;20200;-47
2022/09/20 10:30:37;;;;;;;3.53;1.30;;;;;;;;;;5050785;28;20230;-45
2022/09/20 10:33:09;;;;;;;4.23;1.60;;;;;;;;;;5053816;28;20671;-45
2022/09/20 10:35:43;;;;;;;4.20;1.50;;;;;;;;;;5053920;28;20211;-46
2022/09/20 10:38:13;;;;;;;4.00;1.50;;;;;;;;;;5054078;28;20200;-46
2022/09/20 10:43:35;;;;;;;2.83;1.27;;;;;;;;;;5053464;28;20685;-46
2022/09/20 10:46:06;;;;;;;5.83;1.50;;;;;;;;;;5044646;28;20210;-45
2022/09/20 10:48:41;;;;;;;5.00;1.67;;;;;;;;;;5054306;28;20200;-45
2022/09/20 10:51:11;;;;;;;2.43;1.00;;;;;;;;;;5053902;28;20215;-45
2022/09/20 10:53:42;;;;;;;3.00;1.30;;;;;;;;;;5053851;28;20208;-45
2022/09/20 10:56:16;;;;;;;3.27;1.27;;;;;;;;;;5052831;28;20655;-45
2022/09/20 10:58:53;;;;;;;3.30;1.43;;;;;;;;;;5052748;28;20560;-45
2022/09/20 11:01:23;;;;;;;6.13;1.20;;;;;;;;;;5053486;28;20196;-45
2022/09/20 11:04:01;;;;;;;3.17;1.23;;;;;;;;;;5052910;28;20580;-45
2022/09/20 11:06:36;;;;;;;3.90;1.37;;;;;;;;;;5052972;28;20287;-45
2022/09/20 11:09:03;;;;;;;3.40;1.53;;;;;;;;;;5053442;28;20220;-45
2022/09/20 11:11:31;;;;;;;3.63;1.33;;;;;;;;;;5053662;28;20228;-45
2022/09/20 11:14:00;;;;;;;2.80;1.43;;;;;;;;;;5053567;28;20255;-45
2022/09/20 11:16:28;;;;;;;2.00;1.00;;;;;;;;;;5052722;28;20661;-45
2022/09/20 11:18:59;;;;;;;1.63;1.10;;;;;;;;;;5052452;28;20200;-45
2022/09/20 11:21:27;;;;;;;1.70;0.93;;;;;;;;;;5053222;28;20295;-45
2022/09/20 11:23:56;;;;;;;2.87;1.40;;;;;;;;;;5053291;28;20200;-45
2022/09/20 11:26:26;;;;;;;1.70;1.10;;;;;;;;;;5053177;28;20196;-45
2022/09/20 11:28:54;;;;;;;3.47;1.40;;;;;;;;;;5053428;28;20627;-44
2022/09/20 11:31:22;;;;;;;3.07;1.17;;;;;;;;;;5052517;28;20759;-44
2022/09/20 11:33:51;;;;;;;2.80;1.00;;;;;;;;;;5051262;28;20203;-46
2022/09/20 11:36:22;;;;;;;1.73;1.00;;;;;;;;;;5050997;28;20247;-46
2022/09/20 11:38:49;;;;;;;1.73;1.20;;;;;;;;;;5052295;28;20266;-45
2022/09/20 11:41:18;;;;;;;2.30;1.10;;;;;;;;;;5052973;28;20195;-45
2022/09/20 11:43:45;;;;;;;2.37;1.10;;;;;;;;;;5052002;28;20227;-46
2022/09/20 11:46:13;;;;;;;2.20;1.10;;;;;;;;;;5053073;28;20194;-46
2022/09/20 11:48:42;;;;;;;1.20;0.90;;;;;;;;;;5053336;28;20199;-45
2022/09/20 11:51:24;;;;;;;3.50;1.10;;;;;;;;;;5052692;28;20766;-45
2022/09/20 11:53:55;;;;;;;2.20;0.80;;;;;;;;;;5052954;28;20199;-45
2022/09/20 11:56:23;;;;;;;1.63;0.80;;;;;;;;;;5052878;28;20206;-45
2022/09/20 11:58:50;;;;;;;1.97;1.00;;;;;;;;;;5052452;28;20217;-45
2022/09/20 12:01:24;;;;;;;3.57;1.07;;;;;;;;;;5052714;28;20714;-45
2022/09/20 12:03:51;;;;;;;3.63;1.03;;;;;;;;;;5052972;28;20201;-45
2022/09/20 12:06:25;;;;;;;4.10;1.20;;;;;;;;;;5052585;28;20200;-45
2022/09/20 12:08:51;;;;;;;2.77;1.07;;;;;;;;;;5052511;28;20664;-45
2022/09/20 12:11:25;;;;;;;3.00;1.20;;;;;;;;;;5051949;28;20227;-45
2022/09/20 12:13:52;;;;;;;3.87;1.50;;;;;;;;;;5051919;28;20243;-44
2022/09/20 12:16:35;;;;;;;5.10;1.57;;;;;;;;;;5052355;28;20196;-44
2022/09/20 12:19:03;;;;;;;3.53;1.50;;;;;;;;;;5052424;28;20192;-44
2022/09/20 12:21:30;;;;;;;1.73;0.73;;;;;;;;;;5052506;28;20207;-44
2022/09/20 12:24:00;;;;;;;2.57;1.10;;;;;;;;;;5052379;28;20223;-44
2022/09/20 12:26:51;;;;;;;1.40;1.13;;;;;;;;;;5052145;28;20200;-44
2022/09/20 12:29:50;;;;;;;2.07;1.10;;;;;;;;;;5032386;28;20208;-44
2022/09/20 12:32:31;;;;;;;3.23;0.97;;;;;;;;;;5052091;28;20714;-44
2022/09/20 12:34:57;;;;;;;3.00;1.20;;;;;;;;;;5035658;28;20796;-45
2022/09/20 12:37:25;;;;;;;4.67;1.37;;;;;;;;;;5052496;28;20216;-45
2022/09/20 12:39:53;;;;;;;3.67;1.30;;;;;;;;;;5051903;28;20196;-45
2022/09/20 12:42:28;;;;;;;3.73;1.30;;;;;;;;;;5052122;28;20218;-45
2022/09/20 12:44:59;;;;;;;2.37;1.20;;;;;;;;;;5052019;28;20299;-45
2022/09/20 12:47:27;;;;;;;2.27;1.20;;;;;;;;;;5051958;28;20192;-45
2022/09/20 12:52:49;;;;;;;1.80;0.90;;;;;;;;;;5051680;28;20228;-45
2022/09/20 12:55:29;;;;;;;1.63;1.10;;;;;;;;;;5051649;28;20217;-45
2022/09/20 12:58:01;;;;;;;1.93;0.90;;;;;;;;;;5051648;28;20229;-45
2022/09/20 13:00:35;;;;;;;1.53;1.00;;;;;;;;;;5051348;28;20203;-46
2022/09/20 13:03:11;;;;;;;2.23;0.97;;;;;;;;;;5051721;28;20272;-45
2022/09/20 13:05:38;;;;;;;1.40;1.00;;;;;;;;;;5051753;28;20613;-45
2022/09/20 13:08:14;;;;;;;2.33;0.90;;;;;;;;;;5051489;28;20338;-46
2022/09/20 13:10:43;;;;;;;1.67;0.90;;;;;;;;;;5051357;28;20211;-45
2022/09/20 13:13:15;;;;;;;2.27;1.20;;;;;;;;;;5051461;28;20220;-46
2022/09/20 13:15:47;;;;;;;1.63;0.90;;;;;;;;;;5051405;28;20654;-46
2022/09/20 13:18:14;;;;;;;2.50;0.97;;;;;;;;;;5051602;28;20203;-46
2022/09/20 13:20:41;;;;;;;1.73;0.97;;;;;;;;;;5051433;28;20278;-45
2022/09/20 13:23:16;;;;;;;1.70;0.80;;;;;;;;;;5051421;28;20192;-46
2022/09/20 13:25:43;;;;;;;1.37;0.70;;;;;;;;;;5050998;28;20664;-46
2022/09/20 13:28:15;;;;;;;2.27;1.10;;;;;;;;;;5051687;28;20226;-46
2022/09/20 13:30:41;;;;;;;1.67;1.00;;;;;;;;;;5051244;28;20227;-46
2022/09/20 13:33:15;;;;;;;3.97;1.10;;;;;;;;;;5051017;28;20590;-46
2022/09/20 13:35:42;;;;;;;2.30;1.30;;;;;;;;;;5050741;28;20204;-46
2022/09/20 13:38:09;;;;;;;2.73;1.00;;;;;;;;;;5050668;28;20297;-46
2022/09/20 13:40:37;;;;;;;1.00;0.80;;;;;;;;;;5051015;28;20191;-46
2022/09/20 13:43:05;;;;;;;1.10;0.90;;;;;;;;;;5051055;28;20246;-46
2022/09/20 13:45:32;;;;;;;2.20;1.10;;;;;;;;;;5051125;28;20606;-47
2022/09/20 13:47:58;;;;;;;1.00;0.73;;;;;;;;;;5051140;28;20293;-47
2022/09/20 13:50:27;;;;;;;1.70;1.00;;;;;;;;;;5050982;28;20200;-47
2022/09/20 13:52:54;;;;;;;3.00;1.23;;;;;;;;;;5050833;28;20689;-47
2022/09/20 13:55:27;;;;;;;1.97;1.00;;;;;;;;;;5050979;28;20250;-47
2022/09/20 13:57:55;;;;;;;1.93;1.10;;;;;;;;;;5051114;28;20203;-47
2022/09/20 14:00:24;;;;;;;3.27;1.30;;;;;;;;;;5050642;28;20196;-47
2022/09/20 14:02:52;;;;;;;0.70;0.70;;;;;;;;;;5049654;28;20200;-47
2022/09/20 14:05:19;;;;;;;1.77;1.10;;;;;;;;;;5047661;28;20196;-47
2022/09/20 14:07:45;;;;;;;2.73;0.80;;;;;;;;;;5052840;28;20243;-47
2022/09/20 14:10:26;;;;;;;1.10;0.80;;;;;;;;;;5054004;28;20684;-47
2022/09/20 14:12:52;;;;;;;1.30;0.80;;;;;;;;;;5054081;28;20220;-47
2022/09/20 14:15:18;;;;;;;0.93;0.70;;;;;;;;;;5053656;28;20200;-47
2022/09/20 14:17:46;;;;;;;1.00;0.70;;;;;;;;;;5054981;28;20650;-46
2022/09/20 14:20:14;;;;;;;2.70;1.13;;;;;;;;;;5052866;28;20313;-46
2022/09/20 14:22:40;;;;;;;1.97;1.17;;;;;;;;;;5053403;28;20188;-46
2022/09/20 14:25:18;;;;;;;4.33;2.43;;;;;;;;;;5053779;28;20282;-46
2022/09/20 14:27:44;;;;;;;3.57;1.60;;;;;;;;;;5054030;28;20677;-46
2022/09/20 14:30:25;;;;;;;1.93;1.50;;;;;;;;;;5052793;28;20593;-47
2022/09/20 14:32:54;;;;;;;1.60;1.00;;;;;;;;;;5053102;28;20689;-47
2022/09/20 14:35:20;;;;;;;2.93;1.13;;;;;;;;;;5053721;28;20217;-47
2022/09/20 14:37:47;;;;;;;1.93;1.07;;;;;;;;;;5053056;28;20198;-47
2022/09/20 14:40:17;;;;;;;1.83;0.97;;;;;;;;;;5053440;28;20276;-47
2022/09/20 14:42:44;;;;;;;1.10;1.00;;;;;;;;;;5053924;28;20197;-47
2022/09/20 14:45:19;;;;;;;1.30;1.03;;;;;;;;;;5053920;28;20198;-47
2022/09/20 14:47:54;;;;;;;2.23;0.90;;;;;;;;;;5053966;28;20602;-47
2022/09/20 14:50:22;;;;;;;1.50;0.90;;;;;;;;;;5053677;28;20201;-46
2022/09/20 14:52:58;;;;;;;0.93;0.77;;;;;;;;;;5053461;28;20224;-46
2022/09/20 14:55:27;;;;;;;1.10;1.00;;;;;;;;;;5053079;28;20300;-47
2022/09/20 14:57:55;;;;;;;1.53;0.90;;;;;;;;;;5052423;28;20251;-47
2022/09/20 15:00:21;;;;;;;1.97;0.90;;;;;;;;;;5053542;28;20838;-46
2022/09/20 15:02:47;;;;;;;1.67;1.03;;;;;;;;;;5054024;28;20255;-46
2022/09/20 15:05:24;;;;;;;2.77;1.03;;;;;;;;;;5053841;28;20207;-46
2022/09/20 15:07:51;;;;;;;1.27;0.87;;;;;;;;;;5053952;28;20251;-47
2022/09/20 15:10:17;;;;;;;1.13;0.90;;;;;;;;;;5053783;28;20283;-46
2022/09/20 15:12:43;;;;;;;0.83;0.70;;;;;;;;;;5052861;28;20275;-47
2022/09/20 15:15:13;;;;;;;1.53;1.20;;;;;;;;;;5053829;28;20217;-46
2022/09/20 15:17:40;;;;;;;5.73;4.83;;;;;;;;;;5052359;28;20203;-46
2022/09/20 15:20:06;;;;;;;2.07;1.50;;;;;;;;;;5053149;28;20704;-47
2022/09/20 15:22:33;;;;;;;1.37;0.90;;;;;;;;;;5053534;28;20201;-46